sensor_id;sensor_type;location;lat;lon;timestamp;P1;durP1;ratioP1;P2;durP2;ratioP2
9424;SDS011;17139;52.140;11.636;2023-12-20T00:01:58;2.30;;;2.20;;
9424;SDS011;17139;52.140;11.636;2023-12-20T00:04:25;1.80;;;1.57;;
9424;SDS011;17139;52.140;11.636;2023-12-20T00:06:52;2.40;;;2.30;;
9424;SDS011;17139;52.140;11.636;2023-12-20T00:09:19;3.55;;;3.35;;
9424;SDS011;17139;52.140;11.636;2023-12-20T00:11:47;2.10;;;2.10;;
9424;SDS011;17139;52.140;11.636;2023-12-20T00:14:14;2.60;;;2.50;;
9424;SDS011;17139;52.140;11.636;2023-12-20T00:16:41;2.27;;;2.17;;
9424;SDS011;17139;52.140;11.636;2023-12-20T00:19:08;1.70;;;1.70;;
9424;SDS011;17139;52.140;11.636;2023-12-20T00:21:35;1.83;;;1.83;;
9424;SDS011;17139;52.140;11.636;2023-12-20T00:24:02;1.30;;;1.30;;
9424;SDS011;17139;52.140;11.636;2023-12-20T00:26:29;1.97;;;1.87;;
9424;SDS011;17139;52.140;11.636;2023-12-20T00:28:58;1.80;;;1.80;;
9424;SDS011;17139;52.140;11.636;2023-12-20T00:31:25;2.00;;;2.00;;
9424;SDS011;17139;52.140;11.636;2023-12-20T00:33:52;2.17;;;2.17;;
9424;SDS011;17139;52.140;11.636;2023-12-20T00:36:19;1.80;;;1.80;;
9424;SDS011;17139;52.140;11.636;2023-12-20T00:38:47;1.60;;;1.60;;
9424;SDS011;17139;52.140;11.636;2023-12-20T00:41:15;2.10;;;2.00;;
9424;SDS011;17139;52.140;11.636;2023-12-20T00:43:42;1.97;;;1.97;;
9424;SDS011;17139;52.140;11.636;2023-12-20T00:46:10;2.70;;;2.50;;
9424;SDS011;17139;52.140;11.636;2023-12-20T00:48:38;2.40;;;1.80;;
9424;SDS011;17139;52.140;11.636;2023-12-20T00:51:07;1.63;;;1.63;;
9424;SDS011;17139;52.140;11.636;2023-12-20T00:53:34;1.73;;;1.73;;
9424;SDS011;17139;52.140;11.636;2023-12-20T00:56:01;1.87;;;1.80;;
9424;SDS011;17139;52.140;11.636;2023-12-20T00:58:28;1.63;;;1.63;;
9424;SDS011;17139;52.140;11.636;2023-12-20T01:00:55;1.53;;;1.53;;
9424;SDS011;17139;52.140;11.636;2023-12-20T01:03:22;1.63;;;1.63;;
9424;SDS011;17139;52.140;11.636;2023-12-20T01:05:49;1.87;;;1.87;;
9424;SDS011;17139;52.140;11.636;2023-12-20T01:08:16;1.70;;;1.70;;
9424;SDS011;17139;52.140;11.636;2023-12-20T01:10:43;1.90;;;1.90;;
9424;SDS011;17139;52.140;11.636;2023-12-20T01:13:11;1.67;;;1.67;;
9424;SDS011;17139;52.140;11.636;2023-12-20T01:15:38;1.70;;;1.70;;
9424;SDS011;17139;52.140;11.636;2023-12-20T01:18:05;2.50;;;2.40;;
9424;SDS011;17139;52.140;11.636;2023-12-20T01:20:34;2.10;;;2.10;;
9424;SDS011;17139;52.140;11.636;2023-12-20T01:23:01;1.77;;;1.77;;
9424;SDS011;17139;52.140;11.636;2023-12-20T01:25:28;2.23;;;2.20;;
9424;SDS011;17139;52.140;11.636;2023-12-20T01:27:55;2.07;;;1.80;;
9424;SDS011;17139;52.140;11.636;2023-12-20T01:30:22;2.83;;;1.97;;
9424;SDS011;17139;52.140;11.636;2023-12-20T01:32:49;2.20;;;2.10;;
9424;SDS011;17139;52.140;11.636;2023-12-20T01:35:16;2.30;;;2.20;;
9424;SDS011;17139;52.140;11.636;2023-12-20T01:37:45;1.70;;;1.70;;
9424;SDS011;17139;52.140;11.636;2023-12-20T01:40:12;2.10;;;2.10;;
9424;SDS011;17139;52.140;11.636;2023-12-20T01:42:39;2.10;;;2.10;;
9424;SDS011;17139;52.140;11.636;2023-12-20T01:45:07;3.22;;;3.13;;
9424;SDS011;17139;52.140;11.636;2023-12-20T01:47:35;2.10;;;2.03;;
9424;SDS011;17139;52.140;11.636;2023-12-20T01:50:02;2.07;;;1.40;;
9424;SDS011;17139;52.140;11.636;2023-12-20T01:52:33;4.38;;;4.18;;
9424;SDS011;17139;52.140;11.636;2023-12-20T01:55:02;2.70;;;2.60;;
9424;SDS011;17139;52.140;11.636;2023-12-20T01:57:36;1.23;;;1.23;;
9424;SDS011;17139;52.140;11.636;2023-12-20T02:00:03;0.80;;;0.80;;
9424;SDS011;17139;52.140;11.636;2023-12-20T02:02:31;0.20;;;0.20;;
9424;SDS011;17139;52.140;11.636;2023-12-20T02:04:59;0.20;;;0.20;;
9424;SDS011;17139;52.140;11.636;2023-12-20T02:07:27;0.20;;;0.20;;
9424;SDS011;17139;52.140;11.636;2023-12-20T02:09:55;0.20;;;0.20;;
9424;SDS011;17139;52.140;11.636;2023-12-20T02:12:24;0.20;;;0.20;;
9424;SDS011;17139;52.140;11.636;2023-12-20T02:14:50;0.20;;;0.20;;
9424;SDS011;17139;52.140;11.636;2023-12-20T02:17:19;0.20;;;0.20;;
9424;SDS011;17139;52.140;11.636;2023-12-20T02:19:46;0.20;;;0.20;;
9424;SDS011;17139;52.140;11.636;2023-12-20T02:22:14;0.20;;;0.20;;
9424;SDS011;17139;52.140;11.636;2023-12-20T02:24:41;0.20;;;0.20;;
9424;SDS011;17139;52.140;11.636;2023-12-20T02:27:08;0.20;;;0.20;;
9424;SDS011;17139;52.140;11.636;2023-12-20T02:29:36;0.20;;;0.20;;
9424;SDS011;17139;52.140;11.636;2023-12-20T02:32:03;0.20;;;0.20;;
9424;SDS011;17139;52.140;11.636;2023-12-20T02:34:30;0.20;;;0.20;;
9424;SDS011;17139;52.140;11.636;2023-12-20T02:36:57;0.20;;;0.20;;
9424;SDS011;17139;52.140;11.636;2023-12-20T02:39:25;0.20;;;0.20;;
9424;SDS011;17139;52.140;11.636;2023-12-20T02:41:52;0.20;;;0.20;;
9424;SDS011;17139;52.140;11.636;2023-12-20T02:44:19;0.30;;;0.30;;
9424;SDS011;17139;52.140;11.636;2023-12-20T02:46:46;0.20;;;0.20;;
9424;SDS011;17139;52.140;11.636;2023-12-20T02:49:13;0.20;;;0.20;;
9424;SDS011;17139;52.140;11.636;2023-12-20T02:51:40;0.20;;;0.20;;
9424;SDS011;17139;52.140;11.636;2023-12-20T02:54:07;0.20;;;0.20;;
9424;SDS011;17139;52.140;11.636;2023-12-20T02:56:36;0.20;;;0.20;;
9424;SDS011;17139;52.140;11.636;2023-12-20T02:59:03;0.10;;;0.10;;
9424;SDS011;17139;52.140;11.636;2023-12-20T03:01:31;0.20;;;0.20;;
9424;SDS011;17139;52.140;11.636;2023-12-20T03:03:58;0.20;;;0.20;;
9424;SDS011;17139;52.140;11.636;2023-12-20T03:06:25;0.20;;;0.20;;
9424;SDS011;17139;52.140;11.636;2023-12-20T03:08:52;0.20;;;0.20;;
9424;SDS011;17139;52.140;11.636;2023-12-20T03:11:19;0.20;;;0.20;;
9424;SDS011;17139;52.140;11.636;2023-12-20T03:13:47;0.20;;;0.20;;
9424;SDS011;17139;52.140;11.636;2023-12-20T03:16:14;0.20;;;0.20;;
9424;SDS011;17139;52.140;11.636;2023-12-20T03:18:41;0.30;;;0.30;;
9424;SDS011;17139;52.140;11.636;2023-12-20T03:21:09;0.30;;;0.30;;
9424;SDS011;17139;52.140;11.636;2023-12-20T03:23:36;0.20;;;0.20;;
9424;SDS011;17139;52.140;11.636;2023-12-20T03:26:03;0.20;;;0.20;;
9424;SDS011;17139;52.140;11.636;2023-12-20T03:28:32;0.20;;;0.20;;
9424;SDS011;17139;52.140;11.636;2023-12-20T03:31:01;0.20;;;0.20;;
9424;SDS011;17139;52.140;11.636;2023-12-20T03:33:28;0.20;;;0.20;;
9424;SDS011;17139;52.140;11.636;2023-12-20T03:35:55;0.20;;;0.20;;
9424;SDS011;17139;52.140;11.636;2023-12-20T03:38:22;0.20;;;0.20;;
9424;SDS011;17139;52.140;11.636;2023-12-20T03:40:49;0.20;;;0.20;;
9424;SDS011;17139;52.140;11.636;2023-12-20T03:43:16;0.20;;;0.20;;
9424;SDS011;17139;52.140;11.636;2023-12-20T03:45:43;0.30;;;0.30;;
9424;SDS011;17139;52.140;11.636;2023-12-20T03:48:12;0.20;;;0.20;;
9424;SDS011;17139;52.140;11.636;2023-12-20T03:50:39;0.20;;;0.20;;
9424;SDS011;17139;52.140;11.636;2023-12-20T03:53:06;0.20;;;0.20;;
9424;SDS011;17139;52.140;11.636;2023-12-20T03:55:33;0.20;;;0.20;;
9424;SDS011;17139;52.140;11.636;2023-12-20T03:58:00;0.30;;;0.30;;
9424;SDS011;17139;52.140;11.636;2023-12-20T04:00:27;0.20;;;0.20;;
9424;SDS011;17139;52.140;11.636;2023-12-20T04:02:54;0.20;;;0.20;;
9424;SDS011;17139;52.140;11.636;2023-12-20T04:05:24;0.20;;;0.20;;
9424;SDS011;17139;52.140;11.636;2023-12-20T04:07:51;0.20;;;0.20;;
9424;SDS011;17139;52.140;11.636;2023-12-20T04:10:18;0.30;;;0.30;;
9424;SDS011;17139;52.140;11.636;2023-12-20T04:12:45;0.20;;;0.20;;
9424;SDS011;17139;52.140;11.636;2023-12-20T04:15:12;0.30;;;0.30;;
9424;SDS011;17139;52.140;11.636;2023-12-20T04:17:39;0.20;;;0.20;;
9424;SDS011;17139;52.140;11.636;2023-12-20T04:20:06;0.20;;;0.20;;
9424;SDS011;17139;52.140;11.636;2023-12-20T04:22:35;0.20;;;0.20;;
9424;SDS011;17139;52.140;11.636;2023-12-20T04:25:03;0.20;;;0.20;;
9424;SDS011;17139;52.140;11.636;2023-12-20T04:27:30;0.20;;;0.20;;
9424;SDS011;17139;52.140;11.636;2023-12-20T04:29:57;0.20;;;0.20;;
9424;SDS011;17139;52.140;11.636;2023-12-20T04:32:24;0.20;;;0.20;;
9424;SDS011;17139;52.140;11.636;2023-12-20T04:34:51;0.20;;;0.20;;
9424;SDS011;17139;52.140;11.636;2023-12-20T04:37:18;0.20;;;0.20;;
9424;SDS011;17139;52.140;11.636;2023-12-20T04:39:47;0.20;;;0.20;;
9424;SDS011;17139;52.140;11.636;2023-12-20T04:42:14;0.20;;;0.20;;
9424;SDS011;17139;52.140;11.636;2023-12-20T04:44:41;0.20;;;0.20;;
9424;SDS011;17139;52.140;11.636;2023-12-20T04:47:08;0.20;;;0.20;;
9424;SDS011;17139;52.140;11.636;2023-12-20T04:49:35;0.20;;;0.20;;
9424;SDS011;17139;52.140;11.636;2023-12-20T04:52:03;0.20;;;0.20;;
9424;SDS011;17139;52.140;11.636;2023-12-20T04:54:31;0.20;;;0.20;;
9424;SDS011;17139;52.140;11.636;2023-12-20T04:56:59;0.30;;;0.30;;
9424;SDS011;17139;52.140;11.636;2023-12-20T04:59:26;0.20;;;0.20;;
9424;SDS011;17139;52.140;11.636;2023-12-20T05:01:53;0.20;;;0.20;;
9424;SDS011;17139;52.140;11.636;2023-12-20T05:04:20;0.20;;;0.20;;
9424;SDS011;17139;52.140;11.636;2023-12-20T05:06:47;0.20;;;0.20;;
9424;SDS011;17139;52.140;11.636;2023-12-20T05:09:15;0.20;;;0.20;;
9424;SDS011;17139;52.140;11.636;2023-12-20T05:11:42;0.20;;;0.20;;
9424;SDS011;17139;52.140;11.636;2023-12-20T05:14:11;0.30;;;0.30;;
9424;SDS011;17139;52.140;11.636;2023-12-20T05:16:38;0.20;;;0.20;;
9424;SDS011;17139;52.140;11.636;2023-12-20T05:19:05;0.20;;;0.20;;
9424;SDS011;17139;52.140;11.636;2023-12-20T05:21:32;0.20;;;0.20;;
9424;SDS011;17139;52.140;11.636;2023-12-20T05:23:59;0.20;;;0.20;;
9424;SDS011;17139;52.140;11.636;2023-12-20T05:26:26;0.20;;;0.20;;
9424;SDS011;17139;52.140;11.636;2023-12-20T05:28:54;0.20;;;0.20;;
9424;SDS011;17139;52.140;11.636;2023-12-20T05:31:23;0.20;;;0.20;;
9424;SDS011;17139;52.140;11.636;2023-12-20T05:33:50;0.20;;;0.20;;
9424;SDS011;17139;52.140;11.636;2023-12-20T05:36:17;0.20;;;0.20;;
9424;SDS011;17139;52.140;11.636;2023-12-20T05:38:44;0.20;;;0.20;;
9424;SDS011;17139;52.140;11.636;2023-12-20T05:41:11;0.20;;;0.20;;
9424;SDS011;17139;52.140;11.636;2023-12-20T05:43:38;0.20;;;0.20;;
9424;SDS011;17139;52.140;11.636;2023-12-20T05:46:05;0.20;;;0.20;;
9424;SDS011;17139;52.140;11.636;2023-12-20T05:48:34;0.20;;;0.20;;
9424;SDS011;17139;52.140;11.636;2023-12-20T05:51:01;0.20;;;0.20;;
9424;SDS011;17139;52.140;11.636;2023-12-20T05:53:28;0.23;;;0.23;;
9424;SDS011;17139;52.140;11.636;2023-12-20T05:55:55;0.20;;;0.20;;
9424;SDS011;17139;52.140;11.636;2023-12-20T05:58:22;0.20;;;0.20;;
9424;SDS011;17139;52.140;11.636;2023-12-20T06:00:49;0.20;;;0.20;;
9424;SDS011;17139;52.140;11.636;2023-12-20T06:03:16;0.20;;;0.20;;
9424;SDS011;17139;52.140;11.636;2023-12-20T06:05:44;0.20;;;0.20;;
9424;SDS011;17139;52.140;11.636;2023-12-20T06:08:11;0.30;;;0.30;;
9424;SDS011;17139;52.140;11.636;2023-12-20T06:10:38;5.00;;;1.53;;
9424;SDS011;17139;52.140;11.636;2023-12-20T06:13:05;3.87;;;1.27;;
9424;SDS011;17139;52.140;11.636;2023-12-20T06:15:32;3.43;;;1.20;;
9424;SDS011;17139;52.140;11.636;2023-12-20T06:18:00;1.17;;;1.17;;
9424;SDS011;17139;52.140;11.636;2023-12-20T06:20:27;1.33;;;1.13;;
9424;SDS011;17139;52.140;11.636;2023-12-20T06:22:56;7.77;;;1.30;;
9424;SDS011;17139;52.140;11.636;2023-12-20T06:25:23;5.80;;;1.60;;
9424;SDS011;17139;52.140;11.636;2023-12-20T06:27:50;3.57;;;1.20;;
9424;SDS011;17139;52.140;11.636;2023-12-20T06:30:17;2.33;;;1.20;;
9424;SDS011;17139;52.140;11.636;2023-12-20T06:32:44;4.63;;;1.67;;
9424;SDS011;17139;52.140;11.636;2023-12-20T06:35:12;0.80;;;0.80;;
9424;SDS011;17139;52.140;11.636;2023-12-20T06:37:39;0.80;;;0.73;;
9424;SDS011;17139;52.140;11.636;2023-12-20T06:40:09;5.03;;;1.23;;
9424;SDS011;17139;52.140;11.636;2023-12-20T06:42:36;1.53;;;0.93;;
9424;SDS011;17139;52.140;11.636;2023-12-20T06:45:04;3.00;;;1.40;;
9424;SDS011;17139;52.140;11.636;2023-12-20T06:47:31;2.10;;;1.23;;
9424;SDS011;17139;52.140;11.636;2023-12-20T06:49:58;3.23;;;1.10;;
9424;SDS011;17139;52.140;11.636;2023-12-20T06:52:26;1.85;;;1.13;;
9424;SDS011;17139;52.140;11.636;2023-12-20T06:54:53;1.50;;;1.40;;
9424;SDS011;17139;52.140;11.636;2023-12-20T06:57:21;4.57;;;1.30;;
9424;SDS011;17139;52.140;11.636;2023-12-20T06:59:48;0.90;;;0.90;;
9424;SDS011;17139;52.140;11.636;2023-12-20T07:02:17;1.47;;;1.10;;
9424;SDS011;17139;52.140;11.636;2023-12-20T07:04:44;7.57;;;1.60;;
9424;SDS011;17139;52.140;11.636;2023-12-20T07:07:11;1.43;;;1.00;;
9424;SDS011;17139;52.140;11.636;2023-12-20T07:09:38;1.70;;;1.20;;
9424;SDS011;17139;52.140;11.636;2023-12-20T07:12:07;2.83;;;1.13;;
9424;SDS011;17139;52.140;11.636;2023-12-20T07:14:36;5.13;;;1.43;;
9424;SDS011;17139;52.140;11.636;2023-12-20T07:17:03;2.03;;;1.53;;
9424;SDS011;17139;52.140;11.636;2023-12-20T07:19:30;4.38;;;1.40;;
9424;SDS011;17139;52.140;11.636;2023-12-20T07:21:57;4.30;;;1.55;;
9424;SDS011;17139;52.140;11.636;2023-12-20T07:24:24;6.57;;;1.70;;
9424;SDS011;17139;52.140;11.636;2023-12-20T07:26:51;2.83;;;1.35;;
9424;SDS011;17139;52.140;11.636;2023-12-20T07:29:18;1.57;;;1.47;;
9424;SDS011;17139;52.140;11.636;2023-12-20T07:31:46;2.13;;;1.27;;
9424;SDS011;17139;52.140;11.636;2023-12-20T07:34:13;4.13;;;1.97;;
9424;SDS011;17139;52.140;11.636;2023-12-20T07:36:40;1.07;;;1.07;;
9424;SDS011;17139;52.140;11.636;2023-12-20T07:39:07;1.20;;;0.97;;
9424;SDS011;17139;52.140;11.636;2023-12-20T07:41:35;6.50;;;1.60;;
9424;SDS011;17139;52.140;11.636;2023-12-20T07:44:03;1.93;;;0.80;;
9424;SDS011;17139;52.140;11.636;2023-12-20T07:46:30;1.83;;;1.07;;
9424;SDS011;17139;52.140;11.636;2023-12-20T07:48:59;2.90;;;1.60;;
9424;SDS011;17139;52.140;11.636;2023-12-20T07:51:26;4.73;;;1.50;;
9424;SDS011;17139;52.140;11.636;2023-12-20T07:53:53;2.78;;;1.80;;
9424;SDS011;17139;52.140;11.636;2023-12-20T07:56:20;1.47;;;1.20;;
9424;SDS011;17139;52.140;11.636;2023-12-20T07:58:47;2.00;;;1.50;;
9424;SDS011;17139;52.140;11.636;2023-12-20T08:01:15;3.43;;;1.93;;
9424;SDS011;17139;52.140;11.636;2023-12-20T08:03:43;1.13;;;1.03;;
9424;SDS011;17139;52.140;11.636;2023-12-20T08:06:12;3.17;;;1.20;;
9424;SDS011;17139;52.140;11.636;2023-12-20T08:08:39;2.40;;;1.90;;
9424;SDS011;17139;52.140;11.636;2023-12-20T08:11:06;2.90;;;1.40;;
9424;SDS011;17139;52.140;11.636;2023-12-20T08:13:33;6.50;;;1.60;;
9424;SDS011;17139;52.140;11.636;2023-12-20T08:16:00;7.60;;;1.87;;
9424;SDS011;17139;52.140;11.636;2023-12-20T08:18:29;6.57;;;1.90;;
9424;SDS011;17139;52.140;11.636;2023-12-20T08:20:56;8.07;;;1.97;;
9424;SDS011;17139;52.140;11.636;2023-12-20T08:23:24;3.70;;;1.83;;
9424;SDS011;17139;52.140;11.636;2023-12-20T08:25:51;2.67;;;1.80;;
9424;SDS011;17139;52.140;11.636;2023-12-20T08:28:18;7.00;;;2.15;;
9424;SDS011;17139;52.140;11.636;2023-12-20T08:30:45;3.83;;;1.63;;
9424;SDS011;17139;52.140;11.636;2023-12-20T08:33:12;2.83;;;1.95;;
9424;SDS011;17139;52.140;11.636;2023-12-20T08:35:40;3.17;;;2.03;;
9424;SDS011;17139;52.140;11.636;2023-12-20T08:38:07;4.15;;;1.88;;
9424;SDS011;17139;52.140;11.636;2023-12-20T08:40:35;5.03;;;1.57;;
9424;SDS011;17139;52.140;11.636;2023-12-20T08:43:02;3.80;;;2.00;;
9424;SDS011;17139;52.140;11.636;2023-12-20T08:45:29;1.23;;;1.13;;
9424;SDS011;17139;52.140;11.636;2023-12-20T08:47:56;4.43;;;2.08;;
9424;SDS011;17139;52.140;11.636;2023-12-20T08:50:25;7.90;;;2.53;;
9424;SDS011;17139;52.140;11.636;2023-12-20T08:52:52;3.80;;;1.83;;
9424;SDS011;17139;52.140;11.636;2023-12-20T08:55:19;3.92;;;2.00;;
9424;SDS011;17139;52.140;11.636;2023-12-20T08:57:47;5.37;;;2.10;;
9424;SDS011;17139;52.140;11.636;2023-12-20T09:00:15;2.27;;;1.40;;
9424;SDS011;17139;52.140;11.636;2023-12-20T09:02:45;7.20;;;2.40;;
9424;SDS011;17139;52.140;11.636;2023-12-20T09:05:12;5.77;;;1.97;;
9424;SDS011;17139;52.140;11.636;2023-12-20T09:07:39;4.90;;;2.03;;
9424;SDS011;17139;52.140;11.636;2023-12-20T09:10:06;3.10;;;1.93;;
9424;SDS011;17139;52.140;11.636;2023-12-20T09:12:34;3.60;;;1.67;;
9424;SDS011;17139;52.140;11.636;2023-12-20T09:15:04;6.77;;;1.93;;
9424;SDS011;17139;52.140;11.636;2023-12-20T09:17:32;5.90;;;2.27;;
9424;SDS011;17139;52.140;11.636;2023-12-20T09:19:59;1.97;;;1.80;;
9424;SDS011;17139;52.140;11.636;2023-12-20T09:22:26;1.83;;;1.40;;
9424;SDS011;17139;52.140;11.636;2023-12-20T09:24:53;2.73;;;1.90;;
9424;SDS011;17139;52.140;11.636;2023-12-20T09:27:20;2.58;;;1.60;;
9424;SDS011;17139;52.140;11.636;2023-12-20T09:29:47;2.67;;;1.57;;
9424;SDS011;17139;52.140;11.636;2023-12-20T09:32:16;3.17;;;2.00;;
9424;SDS011;17139;52.140;11.636;2023-12-20T09:34:43;4.17;;;1.50;;
9424;SDS011;17139;52.140;11.636;2023-12-20T09:37:10;1.73;;;1.50;;
9424;SDS011;17139;52.140;11.636;2023-12-20T09:39:37;2.33;;;1.30;;
9424;SDS011;17139;52.140;11.636;2023-12-20T09:42:04;4.47;;;1.50;;
9424;SDS011;17139;52.140;11.636;2023-12-20T09:44:32;3.77;;;1.93;;
9424;SDS011;17139;52.140;11.636;2023-12-20T09:47:01;3.43;;;1.97;;
9424;SDS011;17139;52.140;11.636;2023-12-20T09:49:31;4.90;;;1.50;;
9424;SDS011;17139;52.140;11.636;2023-12-20T09:51:59;6.00;;;1.90;;
9424;SDS011;17139;52.140;11.636;2023-12-20T09:54:28;4.90;;;1.53;;
9424;SDS011;17139;52.140;11.636;2023-12-20T09:56:55;1.90;;;1.53;;
9424;SDS011;17139;52.140;11.636;2023-12-20T09:59:22;1.40;;;1.30;;
9424;SDS011;17139;52.140;11.636;2023-12-20T10:01:49;4.70;;;1.95;;
9424;SDS011;17139;52.140;11.636;2023-12-20T10:04:17;6.97;;;1.93;;
9424;SDS011;17139;52.140;11.636;2023-12-20T10:06:46;8.53;;;1.97;;
9424;SDS011;17139;52.140;11.636;2023-12-20T10:09:13;3.40;;;1.43;;
9424;SDS011;17139;52.140;11.636;2023-12-20T10:11:40;4.20;;;1.10;;
9424;SDS011;17139;52.140;11.636;2023-12-20T10:14:07;2.93;;;1.20;;
9424;SDS011;17139;52.140;11.636;2023-12-20T10:16:36;4.23;;;1.40;;
9424;SDS011;17139;52.140;11.636;2023-12-20T10:19:03;1.63;;;1.50;;
9424;SDS011;17139;52.140;11.636;2023-12-20T10:21:30;3.37;;;2.07;;
9424;SDS011;17139;52.140;11.636;2023-12-20T10:23:59;2.00;;;1.73;;
9424;SDS011;17139;52.140;11.636;2023-12-20T10:26:27;2.83;;;1.47;;
9424;SDS011;17139;52.140;11.636;2023-12-20T10:28:55;2.00;;;1.80;;
9424;SDS011;17139;52.140;11.636;2023-12-20T10:31:26;4.23;;;3.83;;
9424;SDS011;17139;52.140;11.636;2023-12-20T10:33:55;4.97;;;1.93;;
9424;SDS011;17139;52.140;11.636;2023-12-20T10:36:23;4.32;;;2.08;;
9424;SDS011;17139;52.140;11.636;2023-12-20T10:38:52;4.80;;;1.97;;
9424;SDS011;17139;52.140;11.636;2023-12-20T10:41:24;3.70;;;1.67;;
9424;SDS011;17139;52.140;11.636;2023-12-20T10:43:54;2.23;;;1.87;;
9424;SDS011;17139;52.140;11.636;2023-12-20T10:46:25;0.90;;;0.90;;
9424;SDS011;17139;52.140;11.636;2023-12-20T10:48:53;2.17;;;1.87;;
9424;SDS011;17139;52.140;11.636;2023-12-20T10:51:21;2.40;;;1.87;;
9424;SDS011;17139;52.140;11.636;2023-12-20T10:53:51;4.87;;;2.07;;
9424;SDS011;17139;52.140;11.636;2023-12-20T10:56:19;2.37;;;1.00;;
9424;SDS011;17139;52.140;11.636;2023-12-20T10:58:48;1.20;;;1.10;;
9424;SDS011;17139;52.140;11.636;2023-12-20T11:01:16;1.70;;;1.60;;
9424;SDS011;17139;52.140;11.636;2023-12-20T11:03:48;1.70;;;1.40;;
9424;SDS011;17139;52.140;11.636;2023-12-20T11:06:20;1.97;;;1.57;;
9424;SDS011;17139;52.140;11.636;2023-12-20T11:08:56;5.25;;;1.95;;
9424;SDS011;17139;52.140;11.636;2023-12-20T11:11:37;4.03;;;2.40;;
9424;SDS011;17139;52.140;11.636;2023-12-20T11:14:12;2.07;;;1.97;;
9424;SDS011;17139;52.140;11.636;2023-12-20T11:16:44;4.40;;;2.17;;
9424;SDS011;17139;52.140;11.636;2023-12-20T11:19:12;5.33;;;2.13;;
9424;SDS011;17139;52.140;11.636;2023-12-20T11:21:40;2.03;;;1.87;;
9424;SDS011;17139;52.140;11.636;2023-12-20T11:24:07;3.00;;;1.50;;
9424;SDS011;17139;52.140;11.636;2023-12-20T11:26:35;1.57;;;1.37;;
9424;SDS011;17139;52.140;11.636;2023-12-20T11:31:57;4.50;;;1.60;;
9424;SDS011;17139;52.140;11.636;2023-12-20T11:34:26;4.07;;;1.97;;
9424;SDS011;17139;52.140;11.636;2023-12-20T11:36:58;6.83;;;1.80;;
9424;SDS011;17139;52.140;11.636;2023-12-20T11:39:26;3.10;;;1.87;;
9424;SDS011;17139;52.140;11.636;2023-12-20T11:41:58;3.63;;;2.17;;
9424;SDS011;17139;52.140;11.636;2023-12-20T11:44:31;2.40;;;1.60;;
9424;SDS011;17139;52.140;11.636;2023-12-20T11:46:58;2.20;;;1.97;;
9424;SDS011;17139;52.140;11.636;2023-12-20T11:49:25;1.77;;;1.67;;
9424;SDS011;17139;52.140;11.636;2023-12-20T11:51:54;1.80;;;1.70;;
9424;SDS011;17139;52.140;11.636;2023-12-20T11:54:21;3.57;;;1.57;;
9424;SDS011;17139;52.140;11.636;2023-12-20T11:56:48;2.17;;;1.50;;
9424;SDS011;17139;52.140;11.636;2023-12-20T11:59:17;2.07;;;1.87;;
9424;SDS011;17139;52.140;11.636;2023-12-20T12:01:47;1.30;;;1.20;;
9424;SDS011;17139;52.140;11.636;2023-12-20T12:04:15;1.03;;;1.03;;
9424;SDS011;17139;52.140;11.636;2023-12-20T12:06:43;3.20;;;1.77;;
9424;SDS011;17139;52.140;11.636;2023-12-20T12:09:10;1.63;;;1.53;;
9424;SDS011;17139;52.140;11.636;2023-12-20T12:11:37;2.60;;;1.70;;
9424;SDS011;17139;52.140;11.636;2023-12-20T12:14:03;2.90;;;2.00;;
9424;SDS011;17139;52.140;11.636;2023-12-20T12:16:32;1.73;;;1.63;;
9424;SDS011;17139;52.140;11.636;2023-12-20T12:18:59;2.17;;;1.40;;
9424;SDS011;17139;52.140;11.636;2023-12-20T12:21:26;5.93;;;1.40;;
9424;SDS011;17139;52.140;11.636;2023-12-20T12:23:53;2.30;;;2.00;;
9424;SDS011;17139;52.140;11.636;2023-12-20T12:26:20;1.70;;;1.60;;
9424;SDS011;17139;52.140;11.636;2023-12-20T12:28:51;2.03;;;1.80;;
9424;SDS011;17139;52.140;11.636;2023-12-20T12:31:18;2.03;;;1.87;;
9424;SDS011;17139;52.140;11.636;2023-12-20T12:33:46;4.40;;;1.87;;
9424;SDS011;17139;52.140;11.636;2023-12-20T12:36:13;2.30;;;1.30;;
9424;SDS011;17139;52.140;11.636;2023-12-20T12:38:42;1.63;;;1.37;;
9424;SDS011;17139;52.140;11.636;2023-12-20T12:41:10;3.63;;;2.27;;
9424;SDS011;17139;52.140;11.636;2023-12-20T12:43:40;0.97;;;0.97;;
9424;SDS011;17139;52.140;11.636;2023-12-20T12:46:07;4.70;;;1.90;;
9424;SDS011;17139;52.140;11.636;2023-12-20T12:48:35;2.27;;;1.77;;
9424;SDS011;17139;52.140;11.636;2023-12-20T12:51:03;2.55;;;1.80;;
9424;SDS011;17139;52.140;11.636;2023-12-20T12:53:32;3.53;;;2.10;;
9424;SDS011;17139;52.140;11.636;2023-12-20T12:55:59;1.50;;;1.40;;
9424;SDS011;17139;52.140;11.636;2023-12-20T12:58:26;3.10;;;2.08;;
9424;SDS011;17139;52.140;11.636;2023-12-20T13:00:53;1.90;;;1.73;;
9424;SDS011;17139;52.140;11.636;2023-12-20T13:03:20;3.93;;;1.90;;
9424;SDS011;17139;52.140;11.636;2023-12-20T13:05:47;1.97;;;1.53;;
9424;SDS011;17139;52.140;11.636;2023-12-20T13:08:16;2.10;;;1.73;;
9424;SDS011;17139;52.140;11.636;2023-12-20T13:10:43;2.23;;;1.87;;
9424;SDS011;17139;52.140;11.636;2023-12-20T13:13:10;1.67;;;1.53;;
9424;SDS011;17139;52.140;11.636;2023-12-20T13:15:37;2.50;;;1.57;;
9424;SDS011;17139;52.140;11.636;2023-12-20T13:18:04;3.67;;;1.70;;
9424;SDS011;17139;52.140;11.636;2023-12-20T13:20:32;1.53;;;1.43;;
9424;SDS011;17139;52.140;11.636;2023-12-20T13:22:59;2.17;;;1.90;;
9424;SDS011;17139;52.140;11.636;2023-12-20T13:25:27;1.53;;;1.47;;
9424;SDS011;17139;52.140;11.636;2023-12-20T13:27:54;2.92;;;2.20;;
9424;SDS011;17139;52.140;11.636;2023-12-20T13:30:21;1.70;;;0.90;;
9424;SDS011;17139;52.140;11.636;2023-12-20T13:32:48;1.93;;;1.70;;
9424;SDS011;17139;52.140;11.636;2023-12-20T13:35:15;2.05;;;1.90;;
9424;SDS011;17139;52.140;11.636;2023-12-20T13:37:42;1.60;;;1.50;;
9424;SDS011;17139;52.140;11.636;2023-12-20T13:40:10;1.43;;;1.33;;
9424;SDS011;17139;52.140;11.636;2023-12-20T13:42:39;3.43;;;1.70;;
9424;SDS011;17139;52.140;11.636;2023-12-20T13:45:07;1.50;;;1.00;;
9424;SDS011;17139;52.140;11.636;2023-12-20T13:47:34;1.40;;;1.30;;
9424;SDS011;17139;52.140;11.636;2023-12-20T13:50:02;2.13;;;1.37;;
9424;SDS011;17139;52.140;11.636;2023-12-20T13:52:29;0.60;;;0.60;;
9424;SDS011;17139;52.140;11.636;2023-12-20T13:54:56;2.77;;;1.50;;
9424;SDS011;17139;52.140;11.636;2023-12-20T13:57:23;1.63;;;1.50;;
9424;SDS011;17139;52.140;11.636;2023-12-20T13:59:51;4.83;;;1.40;;
9424;SDS011;17139;52.140;11.636;2023-12-20T14:02:19;2.30;;;1.33;;
9424;SDS011;17139;52.140;11.636;2023-12-20T14:04:46;1.03;;;1.00;;
9424;SDS011;17139;52.140;11.636;2023-12-20T14:07:13;3.73;;;1.00;;
9424;SDS011;17139;52.140;11.636;2023-12-20T14:09:40;1.00;;;0.90;;
9424;SDS011;17139;52.140;11.636;2023-12-20T14:12:10;4.60;;;1.33;;
9424;SDS011;17139;52.140;11.636;2023-12-20T14:14:37;1.40;;;1.30;;
9424;SDS011;17139;52.140;11.636;2023-12-20T14:17:05;2.38;;;1.10;;
9424;SDS011;17139;52.140;11.636;2023-12-20T14:19:33;1.10;;;1.00;;
9424;SDS011;17139;52.140;11.636;2023-12-20T14:22:00;1.30;;;1.20;;
9424;SDS011;17139;52.140;11.636;2023-12-20T14:24:28;1.83;;;0.97;;
9424;SDS011;17139;52.140;11.636;2023-12-20T14:26:55;3.22;;;1.00;;
9424;SDS011;17139;52.140;11.636;2023-12-20T14:29:23;0.80;;;0.80;;
9424;SDS011;17139;52.140;11.636;2023-12-20T14:31:50;1.40;;;1.13;;
9424;SDS011;17139;52.140;11.636;2023-12-20T14:34:19;0.57;;;0.57;;
9424;SDS011;17139;52.140;11.636;2023-12-20T14:36:45;2.20;;;1.20;;
9424;SDS011;17139;52.140;11.636;2023-12-20T14:39:12;1.63;;;1.20;;
9424;SDS011;17139;52.140;11.636;2023-12-20T14:41:39;2.90;;;1.00;;
9424;SDS011;17139;52.140;11.636;2023-12-20T14:44:08;3.10;;;0.90;;
9424;SDS011;17139;52.140;11.636;2023-12-20T14:46:35;1.40;;;1.07;;
9424;SDS011;17139;52.140;11.636;2023-12-20T14:49:03;0.57;;;0.57;;
9424;SDS011;17139;52.140;11.636;2023-12-20T14:51:32;3.13;;;0.80;;
9424;SDS011;17139;52.140;11.636;2023-12-20T14:53:59;2.93;;;1.53;;